sensor_id;sensor_type;location;lat;lon;timestamp;P1;durP1;ratioP1;P2;durP2;ratioP2
20559;SDS011;10438;51.454;6.718;2022-08-01T00:00:39;13.60;;;10.10;;
20559;SDS011;10438;51.454;6.718;2022-08-01T00:03:04;15.38;;;9.27;;
20559;SDS011;10438;51.454;6.718;2022-08-01T00:05:30;18.17;;;10.30;;
20559;SDS011;10438;51.454;6.718;2022-08-01T00:07:55;15.07;;;10.35;;
20559;SDS011;10438;51.454;6.718;2022-08-01T00:10:21;18.23;;;10.45;;
20559;SDS011;10438;51.454;6.718;2022-08-01T00:12:47;18.23;;;10.90;;
20559;SDS011;10438;51.454;6.718;2022-08-01T00:15:13;17.15;;;11.05;;
20559;SDS011;10438;51.454;6.718;2022-08-01T00:17:40;17.50;;;11.32;;
20559;SDS011;10438;51.454;6.718;2022-08-01T00:20:07;19.73;;;11.20;;
20559;SDS011;10438;51.454;6.718;2022-08-01T00:22:36;17.88;;;11.20;;
20559;SDS011;10438;51.454;6.718;2022-08-01T00:25:02;15.95;;;11.00;;
20559;SDS011;10438;51.454;6.718;2022-08-01T00:27:28;18.73;;;10.75;;
20559;SDS011;10438;51.454;6.718;2022-08-01T00:29:54;18.02;;;10.32;;
20559;SDS011;10438;51.454;6.718;2022-08-01T00:32:19;14.57;;;10.65;;
20559;SDS011;10438;51.454;6.718;2022-08-01T00:34:45;15.63;;;10.90;;
20559;SDS011;10438;51.454;6.718;2022-08-01T00:37:11;17.75;;;10.82;;
20559;SDS011;10438;51.454;6.718;2022-08-01T00:39:36;17.33;;;10.48;;
20559;SDS011;10438;51.454;6.718;2022-08-01T00:42:09;21.50;;;11.52;;
20559;SDS011;10438;51.454;6.718;2022-08-01T00:44:35;17.00;;;10.85;;
20559;SDS011;10438;51.454;6.718;2022-08-01T00:47:02;19.67;;;11.02;;
20559;SDS011;10438;51.454;6.718;2022-08-01T00:49:28;17.10;;;11.18;;
20559;SDS011;10438;51.454;6.718;2022-08-01T00:51:54;17.75;;;11.07;;
20559;SDS011;10438;51.454;6.718;2022-08-01T00:54:20;16.85;;;10.48;;
20559;SDS011;10438;51.454;6.718;2022-08-01T00:56:48;17.75;;;10.77;;
20559;SDS011;10438;51.454;6.718;2022-08-01T00:59:13;15.35;;;10.48;;
20559;SDS011;10438;51.454;6.718;2022-08-01T01:01:42;14.63;;;10.23;;
20559;SDS011;10438;51.454;6.718;2022-08-01T01:04:07;19.15;;;11.68;;
20559;SDS011;10438;51.454;6.718;2022-08-01T01:06:53;17.40;;;10.45;;
20559;SDS011;10438;51.454;6.718;2022-08-01T01:11:59;16.17;;;10.80;;
20559;SDS011;10438;51.454;6.718;2022-08-01T01:17:19;16.92;;;10.75;;
20559;SDS011;10438;51.454;6.718;2022-08-01T01:19:50;18.63;;;10.93;;
20559;SDS011;10438;51.454;6.718;2022-08-01T01:22:27;16.13;;;10.38;;
20559;SDS011;10438;51.454;6.718;2022-08-01T01:30:22;20.50;;;11.77;;
20559;SDS011;10438;51.454;6.718;2022-08-01T01:32:50;23.30;;;12.15;;
20559;SDS011;10438;51.454;6.718;2022-08-01T01:35:20;22.88;;;11.68;;
20559;SDS011;10438;51.454;6.718;2022-08-01T01:37:49;17.00;;;11.07;;
20559;SDS011;10438;51.454;6.718;2022-08-01T01:40:22;23.73;;;11.48;;
20559;SDS011;10438;51.454;6.718;2022-08-01T01:42:49;24.58;;;11.20;;
20559;SDS011;10438;51.454;6.718;2022-08-01T01:45:16;23.38;;;11.48;;
20559;SDS011;10438;51.454;6.718;2022-08-01T01:47:44;19.90;;;11.57;;
20559;SDS011;10438;51.454;6.718;2022-08-01T01:50:10;22.85;;;11.07;;
20559;SDS011;10438;51.454;6.718;2022-08-01T01:52:37;20.77;;;11.57;;
20559;SDS011;10438;51.454;6.718;2022-08-01T01:55:05;23.70;;;12.50;;
20559;SDS011;10438;51.454;6.718;2022-08-01T01:57:32;24.33;;;12.65;;
20559;SDS011;10438;51.454;6.718;2022-08-01T02:00:03;27.05;;;12.75;;
20559;SDS011;10438;51.454;6.718;2022-08-01T02:02:31;17.70;;;11.93;;
20559;SDS011;10438;51.454;6.718;2022-08-01T02:04:58;21.08;;;12.32;;
20559;SDS011;10438;51.454;6.718;2022-08-01T02:07:25;23.15;;;13.13;;
20559;SDS011;10438;51.454;6.718;2022-08-01T02:09:52;24.05;;;13.13;;
20559;SDS011;10438;51.454;6.718;2022-08-01T02:12:20;26.27;;;12.82;;
20559;SDS011;10438;51.454;6.718;2022-08-01T02:14:47;24.08;;;13.18;;
20559;SDS011;10438;51.454;6.718;2022-08-01T02:17:16;24.05;;;12.80;;
20559;SDS011;10438;51.454;6.718;2022-08-01T02:19:43;23.60;;;13.07;;
20559;SDS011;10438;51.454;6.718;2022-08-01T02:22:11;23.95;;;13.80;;
20559;SDS011;10438;51.454;6.718;2022-08-01T02:24:42;26.55;;;13.80;;
20559;SDS011;10438;51.454;6.718;2022-08-01T02:27:15;23.80;;;13.52;;
20559;SDS011;10438;51.454;6.718;2022-08-01T02:32:32;25.60;;;14.52;;
20559;SDS011;10438;51.454;6.718;2022-08-01T02:35:03;29.65;;;14.65;;
20559;SDS011;10438;51.454;6.718;2022-08-01T02:37:33;27.77;;;14.38;;
20559;SDS011;10438;51.454;6.718;2022-08-01T02:40:01;25.30;;;14.05;;
20559;SDS011;10438;51.454;6.718;2022-08-01T02:42:27;24.70;;;13.88;;
20559;SDS011;10438;51.454;6.718;2022-08-01T02:44:55;28.00;;;14.18;;
20559;SDS011;10438;51.454;6.718;2022-08-01T02:47:22;27.90;;;14.90;;
20559;SDS011;10438;51.454;6.718;2022-08-01T02:49:50;26.58;;;14.07;;
20559;SDS011;10438;51.454;6.718;2022-08-01T02:52:17;26.35;;;14.98;;
20559;SDS011;10438;51.454;6.718;2022-08-01T02:54:46;24.60;;;14.60;;
20559;SDS011;10438;51.454;6.718;2022-08-01T02:57:14;27.63;;;14.98;;
20559;SDS011;10438;51.454;6.718;2022-08-01T02:59:41;36.33;;;15.82;;
20559;SDS011;10438;51.454;6.718;2022-08-01T03:02:08;26.70;;;16.08;;
20559;SDS011;10438;51.454;6.718;2022-08-01T03:04:35;29.42;;;16.05;;
20559;SDS011;10438;51.454;6.718;2022-08-01T03:07:04;33.65;;;15.77;;
20559;SDS011;10438;51.454;6.718;2022-08-01T03:09:34;27.30;;;16.42;;
20559;SDS011;10438;51.454;6.718;2022-08-01T03:12:04;31.60;;;17.05;;
20559;SDS011;10438;51.454;6.718;2022-08-01T03:14:35;30.23;;;17.17;;
20559;SDS011;10438;51.454;6.718;2022-08-01T03:17:04;27.67;;;17.02;;
20559;SDS011;10438;51.454;6.718;2022-08-01T03:19:30;32.25;;;17.52;;
20559;SDS011;10438;51.454;6.718;2022-08-01T03:21:58;36.30;;;17.83;;
20559;SDS011;10438;51.454;6.718;2022-08-01T03:24:26;32.22;;;17.73;;
20559;SDS011;10438;51.454;6.718;2022-08-01T03:26:53;28.90;;;17.65;;
20559;SDS011;10438;51.454;6.718;2022-08-01T03:29:23;35.60;;;18.30;;
20559;SDS011;10438;51.454;6.718;2022-08-01T03:31:52;29.65;;;17.48;;
20559;SDS011;10438;51.454;6.718;2022-08-01T03:34:18;32.72;;;17.42;;
20559;SDS011;10438;51.454;6.718;2022-08-01T03:36:47;30.73;;;18.00;;
20559;SDS011;10438;51.454;6.718;2022-08-01T03:39:18;35.58;;;17.60;;
20559;SDS011;10438;51.454;6.718;2022-08-01T03:41:51;31.65;;;18.13;;
20559;SDS011;10438;51.454;6.718;2022-08-01T03:44:20;27.92;;;17.75;;
20559;SDS011;10438;51.454;6.718;2022-08-01T03:46:52;29.90;;;17.08;;
20559;SDS011;10438;51.454;6.718;2022-08-01T03:49:23;32.22;;;17.15;;
20559;SDS011;10438;51.454;6.718;2022-08-01T03:51:55;35.03;;;18.23;;
20559;SDS011;10438;51.454;6.718;2022-08-01T03:54:23;29.65;;;16.80;;
20559;SDS011;10438;51.454;6.718;2022-08-01T03:56:51;29.92;;;17.98;;
20559;SDS011;10438;51.454;6.718;2022-08-01T03:59:17;37.03;;;17.75;;
20559;SDS011;10438;51.454;6.718;2022-08-01T04:01:44;32.67;;;17.67;;
20559;SDS011;10438;51.454;6.718;2022-08-01T04:04:10;29.90;;;17.85;;
20559;SDS011;10438;51.454;6.718;2022-08-01T04:06:41;29.13;;;16.98;;
20559;SDS011;10438;51.454;6.718;2022-08-01T04:09:08;28.92;;;16.45;;
20559;SDS011;10438;51.454;6.718;2022-08-01T04:11:34;27.95;;;16.38;;
20559;SDS011;10438;51.454;6.718;2022-08-01T04:14:00;25.88;;;17.10;;
20559;SDS011;10438;51.454;6.718;2022-08-01T04:16:25;31.40;;;18.88;;
20559;SDS011;10438;51.454;6.718;2022-08-01T04:18:51;27.85;;;17.65;;
20559;SDS011;10438;51.454;6.718;2022-08-01T04:21:20;26.75;;;16.52;;
20559;SDS011;10438;51.454;6.718;2022-08-01T04:23:49;29.95;;;16.25;;
20559;SDS011;10438;51.454;6.718;2022-08-01T04:26:18;25.42;;;16.00;;
20559;SDS011;10438;51.454;6.718;2022-08-01T04:28:46;27.48;;;15.88;;
20559;SDS011;10438;51.454;6.718;2022-08-01T04:31:14;26.98;;;16.38;;
20559;SDS011;10438;51.454;6.718;2022-08-01T04:33:43;26.83;;;15.55;;
20559;SDS011;10438;51.454;6.718;2022-08-01T04:36:12;29.67;;;16.67;;
20559;SDS011;10438;51.454;6.718;2022-08-01T04:38:40;24.25;;;15.63;;
20559;SDS011;10438;51.454;6.718;2022-08-01T04:41:07;29.60;;;15.55;;
20559;SDS011;10438;51.454;6.718;2022-08-01T04:43:36;28.05;;;15.27;;
20559;SDS011;10438;51.454;6.718;2022-08-01T04:46:02;26.45;;;16.52;;
20559;SDS011;10438;51.454;6.718;2022-08-01T04:48:28;22.50;;;14.93;;
20559;SDS011;10438;51.454;6.718;2022-08-01T04:50:56;21.65;;;13.85;;
20559;SDS011;10438;51.454;6.718;2022-08-01T04:53:21;27.08;;;15.18;;
20559;SDS011;10438;51.454;6.718;2022-08-01T04:55:47;28.70;;;15.40;;
20559;SDS011;10438;51.454;6.718;2022-08-01T04:58:14;28.60;;;16.20;;
20559;SDS011;10438;51.454;6.718;2022-08-01T05:00:39;27.67;;;15.80;;
20559;SDS011;10438;51.454;6.718;2022-08-01T05:03:05;25.88;;;15.55;;
20559;SDS011;10438;51.454;6.718;2022-08-01T05:05:31;26.00;;;15.63;;
20559;SDS011;10438;51.454;6.718;2022-08-01T05:07:57;20.38;;;13.98;;
20559;SDS011;10438;51.454;6.718;2022-08-01T05:10:22;24.13;;;13.23;;
20559;SDS011;10438;51.454;6.718;2022-08-01T05:12:50;27.75;;;13.57;;
20559;SDS011;10438;51.454;6.718;2022-08-01T05:15:16;22.00;;;13.98;;
20559;SDS011;10438;51.454;6.718;2022-08-01T05:17:41;26.98;;;13.85;;
20559;SDS011;10438;51.454;6.718;2022-08-01T05:20:07;28.63;;;14.93;;
20559;SDS011;10438;51.454;6.718;2022-08-01T05:22:33;31.05;;;19.90;;
20559;SDS011;10438;51.454;6.718;2022-08-01T05:24:59;26.48;;;14.65;;
20559;SDS011;10438;51.454;6.718;2022-08-01T05:27:25;23.73;;;14.38;;
20559;SDS011;10438;51.454;6.718;2022-08-01T05:29:51;31.05;;;15.98;;
20559;SDS011;10438;51.454;6.718;2022-08-01T05:32:16;23.85;;;14.93;;
20559;SDS011;10438;51.454;6.718;2022-08-01T05:34:42;23.10;;;13.50;;
20559;SDS011;10438;51.454;6.718;2022-08-01T05:37:08;22.33;;;12.25;;
20559;SDS011;10438;51.454;6.718;2022-08-01T05:39:33;22.35;;;13.02;;
20559;SDS011;10438;51.454;6.718;2022-08-01T05:41:59;19.88;;;12.77;;
20559;SDS011;10438;51.454;6.718;2022-08-01T05:44:25;21.05;;;13.85;;
20559;SDS011;10438;51.454;6.718;2022-08-01T05:46:50;26.55;;;16.00;;
20559;SDS011;10438;51.454;6.718;2022-08-01T05:49:16;29.45;;;17.00;;
20559;SDS011;10438;51.454;6.718;2022-08-01T05:51:42;20.27;;;12.57;;
20559;SDS011;10438;51.454;6.718;2022-08-01T05:54:07;18.67;;;10.73;;
20559;SDS011;10438;51.454;6.718;2022-08-01T05:56:33;27.80;;;17.42;;
20559;SDS011;10438;51.454;6.718;2022-08-01T05:58:58;16.85;;;11.25;;
20559;SDS011;10438;51.454;6.718;2022-08-01T06:01:24;15.77;;;10.93;;
20559;SDS011;10438;51.454;6.718;2022-08-01T06:03:50;22.60;;;11.40;;
20559;SDS011;10438;51.454;6.718;2022-08-01T06:06:15;16.42;;;10.48;;
20559;SDS011;10438;51.454;6.718;2022-08-01T06:08:41;17.50;;;10.55;;
20559;SDS011;10438;51.454;6.718;2022-08-01T06:11:07;19.52;;;12.27;;
20559;SDS011;10438;51.454;6.718;2022-08-01T06:13:32;18.63;;;10.98;;
20559;SDS011;10438;51.454;6.718;2022-08-01T06:15:58;13.85;;;10.02;;
20559;SDS011;10438;51.454;6.718;2022-08-01T06:18:24;20.17;;;11.55;;
20559;SDS011;10438;51.454;6.718;2022-08-01T06:20:49;21.02;;;13.63;;
20559;SDS011;10438;51.454;6.718;2022-08-01T06:23:15;18.35;;;10.80;;
20559;SDS011;10438;51.454;6.718;2022-08-01T06:25:42;16.73;;;9.95;;
20559;SDS011;10438;51.454;6.718;2022-08-01T06:28:07;16.63;;;10.02;;
20559;SDS011;10438;51.454;6.718;2022-08-01T06:30:33;13.32;;;8.75;;
20559;SDS011;10438;51.454;6.718;2022-08-01T06:32:59;14.05;;;8.80;;
20559;SDS011;10438;51.454;6.718;2022-08-01T06:35:25;16.00;;;8.35;;
20559;SDS011;10438;51.454;6.718;2022-08-01T06:37:53;15.77;;;9.98;;
20559;SDS011;10438;51.454;6.718;2022-08-01T06:40:19;13.90;;;9.35;;
20559;SDS011;10438;51.454;6.718;2022-08-01T06:42:44;15.35;;;9.25;;
20559;SDS011;10438;51.454;6.718;2022-08-01T06:45:11;14.60;;;8.80;;
20559;SDS011;10438;51.454;6.718;2022-08-01T06:47:38;13.90;;;8.30;;
20559;SDS011;10438;51.454;6.718;2022-08-01T06:50:05;11.93;;;7.40;;
20559;SDS011;10438;51.454;6.718;2022-08-01T06:52:32;15.45;;;8.07;;
20559;SDS011;10438;51.454;6.718;2022-08-01T06:54:58;10.90;;;7.38;;
20559;SDS011;10438;51.454;6.718;2022-08-01T06:57:24;14.52;;;6.28;;
20559;SDS011;10438;51.454;6.718;2022-08-01T06:59:50;13.68;;;8.45;;
20559;SDS011;10438;51.454;6.718;2022-08-01T07:02:15;13.70;;;8.20;;
20559;SDS011;10438;51.454;6.718;2022-08-01T07:04:42;10.23;;;6.70;;
20559;SDS011;10438;51.454;6.718;2022-08-01T07:07:08;10.82;;;6.18;;
20559;SDS011;10438;51.454;6.718;2022-08-01T07:09:33;10.75;;;6.30;;
20559;SDS011;10438;51.454;6.718;2022-08-01T07:11:59;12.63;;;7.28;;
20559;SDS011;10438;51.454;6.718;2022-08-01T07:14:25;11.05;;;6.50;;
20559;SDS011;10438;51.454;6.718;2022-08-01T07:16:50;11.48;;;6.13;;
20559;SDS011;10438;51.454;6.718;2022-08-01T07:19:16;8.05;;;5.13;;
20559;SDS011;10438;51.454;6.718;2022-08-01T07:21:42;9.88;;;6.38;;
20559;SDS011;10438;51.454;6.718;2022-08-01T07:24:09;9.77;;;5.22;;
20559;SDS011;10438;51.454;6.718;2022-08-01T07:26:38;8.60;;;4.85;;
20559;SDS011;10438;51.454;6.718;2022-08-01T07:29:04;9.38;;;4.22;;
20559;SDS011;10438;51.454;6.718;2022-08-01T07:31:30;6.95;;;3.95;;
20559;SDS011;10438;51.454;6.718;2022-08-01T07:33:55;6.55;;;4.07;;
20559;SDS011;10438;51.454;6.718;2022-08-01T07:36:21;7.40;;;3.97;;
20559;SDS011;10438;51.454;6.718;2022-08-01T07:38:46;6.65;;;3.67;;
20559;SDS011;10438;51.454;6.718;2022-08-01T07:41:12;8.23;;;4.50;;
20559;SDS011;10438;51.454;6.718;2022-08-01T07:43:38;6.93;;;4.30;;
20559;SDS011;10438;51.454;6.718;2022-08-01T07:46:03;6.40;;;4.13;;
20559;SDS011;10438;51.454;6.718;2022-08-01T07:48:29;7.70;;;4.55;;
20559;SDS011;10438;51.454;6.718;2022-08-01T07:50:55;7.85;;;5.00;;
20559;SDS011;10438;51.454;6.718;2022-08-01T07:53:21;8.75;;;4.15;;
20559;SDS011;10438;51.454;6.718;2022-08-01T07:55:47;7.20;;;4.53;;
20559;SDS011;10438;51.454;6.718;2022-08-01T07:58:13;11.25;;;5.28;;
20559;SDS011;10438;51.454;6.718;2022-08-01T08:00:39;16.35;;;5.47;;
20559;SDS011;10438;51.454;6.718;2022-08-01T08:03:05;7.60;;;4.70;;
20559;SDS011;10438;51.454;6.718;2022-08-01T08:05:31;7.40;;;4.00;;
20559;SDS011;10438;51.454;6.718;2022-08-01T08:07:59;11.30;;;5.43;;
20559;SDS011;10438;51.454;6.718;2022-08-01T08:10:26;9.05;;;3.65;;
20559;SDS011;10438;51.454;6.718;2022-08-01T08:12:51;6.28;;;3.80;;
20559;SDS011;10438;51.454;6.718;2022-08-01T08:15:17;4.68;;;2.08;;
20559;SDS011;10438;51.454;6.718;2022-08-01T08:17:43;4.53;;;2.22;;
20559;SDS011;10438;51.454;6.718;2022-08-01T08:20:08;5.25;;;1.60;;
20559;SDS011;10438;51.454;6.718;2022-08-01T08:22:34;4.50;;;1.45;;
20559;SDS011;10438;51.454;6.718;2022-08-01T08:25:00;5.50;;;1.40;;
20559;SDS011;10438;51.454;6.718;2022-08-01T08:27:26;3.88;;;1.58;;
20559;SDS011;10438;51.454;6.718;2022-08-01T08:29:51;3.22;;;1.48;;
20559;SDS011;10438;51.454;6.718;2022-08-01T08:32:17;2.80;;;1.42;;
20559;SDS011;10438;51.454;6.718;2022-08-01T08:34:43;3.63;;;1.48;;
20559;SDS011;10438;51.454;6.718;2022-08-01T08:37:09;2.33;;;1.25;;
20559;SDS011;10438;51.454;6.718;2022-08-01T08:39:34;2.85;;;1.60;;
20559;SDS011;10438;51.454;6.718;2022-08-01T08:42:01;5.80;;;1.52;;
20559;SDS011;10438;51.454;6.718;2022-08-01T08:44:30;6.07;;;3.72;;
20559;SDS011;10438;51.454;6.718;2022-08-01T08:46:56;8.25;;;4.55;;
20559;SDS011;10438;51.454;6.718;2022-08-01T08:49:23;4.50;;;2.67;;
20559;SDS011;10438;51.454;6.718;2022-08-01T08:51:51;3.58;;;1.98;;
20559;SDS011;10438;51.454;6.718;2022-08-01T08:54:20;4.05;;;1.80;;
20559;SDS011;10438;51.454;6.718;2022-08-01T08:56:48;3.53;;;1.60;;
20559;SDS011;10438;51.454;6.718;2022-08-01T08:59:15;3.83;;;1.60;;
20559;SDS011;10438;51.454;6.718;2022-08-01T09:01:41;4.22;;;1.85;;
20559;SDS011;10438;51.454;6.718;2022-08-01T09:04:11;4.00;;;1.70;;
20559;SDS011;10438;51.454;6.718;2022-08-01T09:06:40;4.53;;;1.73;;
20559;SDS011;10438;51.454;6.718;2022-08-01T09:09:06;4.60;;;1.83;;
20559;SDS011;10438;51.454;6.718;2022-08-01T09:11:33;5.15;;;1.70;;
20559;SDS011;10438;51.454;6.718;2022-08-01T09:16:47;3.33;;;1.83;;
20559;SDS011;10438;51.454;6.718;2022-08-01T09:19:23;4.50;;;1.92;;
20559;SDS011;10438;51.454;6.718;2022-08-01T09:21:58;6.38;;;2.20;;
20559;SDS011;10438;51.454;6.718;2022-08-01T09:24:30;4.32;;;1.92;;
20559;SDS011;10438;51.454;6.718;2022-08-01T09:26:56;5.18;;;1.55;;
20559;SDS011;10438;51.454;6.718;2022-08-01T09:29:25;4.25;;;1.55;;
20559;SDS011;10438;51.454;6.718;2022-08-01T09:31:52;2.83;;;1.30;;
20559;SDS011;10438;51.454;6.718;2022-08-01T09:34:25;4.07;;;1.63;;
20559;SDS011;10438;51.454;6.718;2022-08-01T09:36:58;4.57;;;1.65;;
20559;SDS011;10438;51.454;6.718;2022-08-01T09:39:26;4.03;;;1.60;;
20559;SDS011;10438;51.454;6.718;2022-08-01T09:42:21;3.40;;;1.83;;
20559;SDS011;10438;51.454;6.718;2022-08-01T09:44:49;3.85;;;1.92;;
20559;SDS011;10438;51.454;6.718;2022-08-01T09:47:15;5.22;;;2.08;;
20559;SDS011;10438;51.454;6.718;2022-08-01T09:49:42;4.03;;;1.98;;
20559;SDS011;10438;51.454;6.718;2022-08-01T09:52:15;3.63;;;1.90;;
20559;SDS011;10438;51.454;6.718;2022-08-01T09:54:55;3.15;;;1.75;;
20559;SDS011;10438;51.454;6.718;2022-08-01T09:57:26;5.72;;;2.00;;
20559;SDS011;10438;51.454;6.718;2022-08-01T09:59:53;4.05;;;2.17;;
20559;SDS011;10438;51.454;6.718;2022-08-01T10:04:58;3.38;;;1.77;;
20559;SDS011;10438;51.454;6.718;2022-08-01T10:07:24;3.00;;;1.30;;
20559;SDS011;10438;51.454;6.718;2022-08-01T10:09:51;3.10;;;1.52;;
20559;SDS011;10438;51.454;6.718;2022-08-01T10:12:17;2.60;;;1.40;;
20559;SDS011;10438;51.454;6.718;2022-08-01T10:14:46;3.40;;;1.45;;
20559;SDS011;10438;51.454;6.718;2022-08-01T10:17:17;5.68;;;1.58;;
20559;SDS011;10438;51.454;6.718;2022-08-01T10:19:44;3.92;;;1.60;;
20559;SDS011;10438;51.454;6.718;2022-08-01T10:22:11;4.03;;;2.28;;
20559;SDS011;10438;51.454;6.718;2022-08-01T10:24:43;2.67;;;1.45;;
20559;SDS011;10438;51.454;6.718;2022-08-01T10:27:11;3.83;;;1.50;;
20559;SDS011;10438;51.454;6.718;2022-08-01T10:29:42;3.38;;;1.25;;
20559;SDS011;10438;51.454;6.718;2022-08-01T10:32:12;3.55;;;1.48;;
20559;SDS011;10438;51.454;6.718;2022-08-01T10:34:37;2.75;;;1.10;;
20559;SDS011;10438;51.454;6.718;2022-08-01T10:37:04;2.25;;;1.17;;
20559;SDS011;10438;51.454;6.718;2022-08-01T10:39:31;3.90;;;1.30;;
20559;SDS011;10438;51.454;6.718;2022-08-01T10:41:58;3.55;;;1.30;;
20559;SDS011;10438;51.454;6.718;2022-08-01T10:44:24;4.55;;;1.40;;
20559;SDS011;10438;51.454;6.718;2022-08-01T10:46:53;3.85;;;1.40;;
20559;SDS011;10438;51.454;6.718;2022-08-01T10:49:27;4.55;;;1.58;;
20559;SDS011;10438;51.454;6.718;2022-08-01T10:51:55;2.67;;;1.20;;
20559;SDS011;10438;51.454;6.718;2022-08-01T10:54:23;4.57;;;1.60;;
20559;SDS011;10438;51.454;6.718;2022-08-01T10:56:50;5.60;;;1.52;;
20559;SDS011;10438;51.454;6.718;2022-08-01T10:59:20;2.20;;;1.08;;
20559;SDS011;10438;51.454;6.718;2022-08-01T11:01:59;1.95;;;0.80;;
20559;SDS011;10438;51.454;6.718;2022-08-01T11:07:20;1.65;;;0.73;;
20559;SDS011;10438;51.454;6.718;2022-08-01T11:09:49;1.85;;;0.68;;
20559;SDS011;10438;51.454;6.718;2022-08-01T11:12:40;1.98;;;0.80;;
20559;SDS011;10438;51.454;6.718;2022-08-01T11:17:37;4.07;;;1.80;;
20559;SDS011;10438;51.454;6.718;2022-08-01T11:20:10;3.95;;;0.90;;
20559;SDS011;10438;51.454;6.718;2022-08-01T11:28:17;1.40;;;0.70;;
20559;SDS011;10438;51.454;6.718;2022-08-01T11:38:38;2.17;;;0.70;;
20559;SDS011;10438;51.454;6.718;2022-08-01T11:43:57;2.05;;;0.90;;
20559;SDS011;10438;51.454;6.718;2022-08-01T11:47:06;2.40;;;0.90;;
20559;SDS011;10438;51.454;6.718;2022-08-01T11:52:09;2.28;;;0.95;;
20559;SDS011;10438;51.454;6.718;2022-08-01T11:54:51;8.30;;;5.13;;
20559;SDS011;10438;51.454;6.718;2022-08-01T11:57:23;5.53;;;2.40;;
20559;SDS011;10438;51.454;6.718;2022-08-01T11:59:53;4.03;;;2.10;;
20559;SDS011;10438;51.454;6.718;2022-08-01T12:02:21;4.93;;;1.33;;
20559;SDS011;10438;51.454;6.718;2022-08-01T12:04:48;2.08;;;0.90;;
20559;SDS011;10438;51.454;6.718;2022-08-01T12:07:16;2.08;;;1.05;;
20559;SDS011;10438;51.454;6.718;2022-08-01T12:09:42;3.22;;;1.15;;
20559;SDS011;10438;51.454;6.718;2022-08-01T12:12:08;2.13;;;0.98;;
20559;SDS011;10438;51.454;6.718;2022-08-01T12:14:35;3.75;;;1.30;;
20559;SDS011;10438;51.454;6.718;2022-08-01T12:17:00;2.60;;;1.27;;
20559;SDS011;10438;51.454;6.718;2022-08-01T12:19:26;2.95;;;0.70;;
20559;SDS011;10438;51.454;6.718;2022-08-01T12:22:04;2.42;;;0.90;;
20559;SDS011;10438;51.454;6.718;2022-08-01T12:24:32;3.90;;;1.30;;
20559;SDS011;10438;51.454;6.718;2022-08-01T12:26:58;1.50;;;0.90;;
20559;SDS011;10438;51.454;6.718;2022-08-01T12:32:21;12.02;;;7.32;;
20559;SDS011;10438;51.454;6.718;2022-08-01T12:35:02;6.70;;;3.85;;
20559;SDS011;10438;51.454;6.718;2022-08-01T12:37:29;2.40;;;1.15;;
20559;SDS011;10438;51.454;6.718;2022-08-01T12:39:55;2.03;;;0.80;;
20559;SDS011;10438;51.454;6.718;2022-08-01T12:42:22;3.28;;;1.10;;
20559;SDS011;10438;51.454;6.718;2022-08-01T12:44:48;3.97;;;0.75;;
20559;SDS011;10438;51.454;6.718;2022-08-01T12:47:16;3.58;;;1.35;;
20559;SDS011;10438;51.454;6.718;2022-08-01T12:49:44;3.40;;;1.85;;
20559;SDS011;10438;51.454;6.718;2022-08-01T12:52:10;2.40;;;1.10;;
20559;SDS011;10438;51.454;6.718;2022-08-01T12:55:20;2.03;;;0.90;;
20559;SDS011;10438;51.454;6.718;2022-08-01T12:57:26;4.82;;;0.93;;
20559;SDS011;10438;51.454;6.718;2022-08-01T12:59:52;2.17;;;1.00;;
20559;SDS011;10438;51.454;6.718;2022-08-01T13:02:18;2.42;;;0.85;;
20559;SDS011;10438;51.454;6.718;2022-08-01T13:04:50;1.40;;;0.80;;
20559;SDS011;10438;51.454;6.718;2022-08-01T13:07:16;1.60;;;0.90;;
20559;SDS011;10438;51.454;6.718;2022-08-01T13:09:51;2.13;;;0.93;;
20559;SDS011;10438;51.454;6.718;2022-08-01T13:12:17;2.90;;;1.00;;
20559;SDS011;10438;51.454;6.718;2022-08-01T13:14:42;3.38;;;1.38;;
20559;SDS011;10438;51.454;6.718;2022-08-01T13:17:08;3.22;;;1.08;;
20559;SDS011;10438;51.454;6.718;2022-08-01T13:19:43;1.90;;;0.80;;
20559;SDS011;10438;51.454;6.718;2022-08-01T13:22:09;1.95;;;1.00;;
20559;SDS011;10438;51.454;6.718;2022-08-01T13:24:35;3.05;;;1.10;;
20559;SDS011;10438;51.454;6.718;2022-08-01T13:27:02;2.95;;;1.08;;
20559;SDS011;10438;51.454;6.718;2022-08-01T13:29:33;2.78;;;1.35;;
20559;SDS011;10438;51.454;6.718;2022-08-01T13:32:01;2.40;;;1.30;;
20559;SDS011;10438;51.454;6.718;2022-08-01T13:34:43;3.83;;;1.10;;
20559;SDS011;10438;51.454;6.718;2022-08-01T13:37:09;2.63;;;1.05;;
20559;SDS011;10438;51.454;6.718;2022-08-01T13:39:35;2.58;;;1.10;;
20559;SDS011;10438;51.454;6.718;2022-08-01T13:42:08;3.47;;;1.20;;
20559;SDS011;10438;51.454;6.718;2022-08-01T13:44:35;3.30;;;1.30;;
20559;SDS011;10438;51.454;6.718;2022-08-01T13:47:01;2.90;;;1.10;;
20559;SDS011;10438;51.454;6.718;2022-08-01T13:49:30;2.53;;;1.08;;
20559;SDS011;10438;51.454;6.718;2022-08-01T13:51:56;2.13;;;1.00;;
20559;SDS011;10438;51.454;6.718;2022-08-01T13:54:22;2.10;;;1.00;;
20559;SDS011;10438;51.454;6.718;2022-08-01T13:56:48;3.40;;;1.30;;
20559;SDS011;10438;51.454;6.718;2022-08-01T13:59:15;3.42;;;1.40;;
20559;SDS011;10438;51.454;6.718;2022-08-01T14:01:40;4.50;;;1.75;;
20559;SDS011;10438;51.454;6.718;2022-08-01T14:04:06;6.85;;;2.20;;
20559;SDS011;10438;51.454;6.718;2022-08-01T14:06:32;5.22;;;2.22;;
20559;SDS011;10438;51.454;6.718;2022-08-01T14:08:58;4.80;;;1.60;;
20559;SDS011;10438;51.454;6.718;2022-08-01T14:11:24;8.40;;;1.45;;
20559;SDS011;10438;51.454;6.718;2022-08-01T14:13:49;8.52;;;1.50;;
20559;SDS011;10438;51.454;6.718;2022-08-01T14:16:16;7.25;;;1.50;;
20559;SDS011;10438;51.454;6.718;2022-08-01T14:18:42;11.18;;;8.02;;
20559;SDS011;10438;51.454;6.718;2022-08-01T14:21:07;6.60;;;2.42;;
20559;SDS011;10438;51.454;6.718;2022-08-01T14:23:33;4.63;;;1.60;;
20559;SDS011;10438;51.454;6.718;2022-08-01T14:25:58;7.30;;;4.97;;
20559;SDS011;10438;51.454;6.718;2022-08-01T14:28:24;3.05;;;1.40;;
20559;SDS011;10438;51.454;6.718;2022-08-01T14:30:52;4.22;;;1.40;;
20559;SDS011;10438;51.454;6.718;2022-08-01T14:33:17;2.25;;;0.98;;
20559;SDS011;10438;51.454;6.718;2022-08-01T14:35:43;2.42;;;1.10;;
20559;SDS011;10438;51.454;6.718;2022-08-01T14:38:08;5.95;;;1.30;;
20559;SDS011;10438;51.454;6.718;2022-08-01T14:40:34;4.25;;;1.40;;
20559;SDS011;10438;51.454;6.718;2022-08-01T14:43:00;3.83;;;1.60;;
20559;SDS011;10438;51.454;6.718;2022-08-01T14:45:26;6.88;;;1.77;;
20559;SDS011;10438;51.454;6.718;2022-08-01T14:47:52;5.57;;;1.50;;
20559;SDS011;10438;51.454;6.718;2022-08-01T14:50:17;4.05;;;1.40;;
20559;SDS011;10438;51.454;6.718;2022-08-01T14:52:43;3.17;;;1.13;;
20559;SDS011;10438;51.454;6.718;2022-08-01T14:55:09;6.22;;;1.50;;
20559;SDS011;10438;51.454;6.718;2022-08-01T14:57:36;3.03;;;1.20;;
20559;SDS011;10438;51.454;6.718;2022-08-01T15:00:04;3.35;;;1.08;;
20559;SDS011;10438;51.454;6.718;2022-08-01T15:02:33;3.60;;;1.33;;
20559;SDS011;10438;51.454;6.718;2022-08-01T15:04:58;2.53;;;1.13;;
20559;SDS011;10438;51.454;6.718;2022-08-01T15:07:24;2.65;;;1.10;;
20559;SDS011;10438;51.454;6.718;2022-08-01T15:09:49;5.28;;;1.00;;
20559;SDS011;10438;51.454;6.718;2022-08-01T15:12:15;2.10;;;1.00;;
20559;SDS011;10438;51.454;6.718;2022-08-01T15:14:41;6.05;;;1.20;;
20559;SDS011;10438;51.454;6.718;2022-08-01T15:17:13;2.63;;;0.90;;
20559;SDS011;10438;51.454;6.718;2022-08-01T15:19:39;3.92;;;1.25;;
20559;SDS011;10438;51.454;6.718;2022-08-01T15:22:05;2.45;;;1.17;;
20559;SDS011;10438;51.454;6.718;2022-08-01T15:24:30;2.35;;;0.80;;